Time;durP1;ratioP1;P1;durP2;ratioP2;P2;SDS_P1;SDS_P2;PMS_P1;PMS_P2;Temp;Humidity;BMP_temperature;BMP_pressure;BME280_temperature;BME280_humidity;BME280_pressure;Samples;Min_cycle;Max_cycle;Signal;HPM_P1;HPM_P2
2021/03/21 00:01:07;;;;;;;2.53;0.60;;;;;;;;;;6346633;22;20014;-76
2021/03/21 00:03:33;;;;;;;1.10;0.40;;;;;;;;;;6373859;22;20005;-76
2021/03/21 00:05:59;;;;;;;2.93;0.63;;;;;;;;;;6342795;22;20019;-75
2021/03/21 00:08:27;;;;;;;2.37;0.70;;;;;;;;;;6341163;22;20445;-76
2021/03/21 00:10:57;;;;;;;1.00;0.50;;;;;;;;;;6341770;22;20002;-76
2021/03/21 00:13:24;;;;;;;1.60;0.47;;;;;;;;;;6341387;22;19999;-75
2021/03/21 00:15:51;;;;;;;2.87;0.70;;;;;;;;;;6367404;22;20044;-75
2021/03/21 00:18:17;;;;;;;5.20;0.50;;;;;;;;;;6366814;22;20039;-75
2021/03/21 00:20:44;;;;;;;2.37;0.60;;;;;;;;;;6342620;22;19994;-76
2021/03/21 00:23:10;;;;;;;2.13;0.50;;;;;;;;;;6368533;22;20006;-76
2021/03/21 00:25:36;;;;;;;1.83;0.67;;;;;;;;;;6342632;22;20014;-76
2021/03/21 00:28:04;;;;;;;1.67;0.70;;;;;;;;;;6365661;22;20109;-75
2021/03/21 00:30:35;;;;;;;1.83;0.60;;;;;;;;;;6366112;22;20120;-76
2021/03/21 00:33:01;;;;;;;0.70;0.57;;;;;;;;;;6366172;22;19998;-76
2021/03/21 00:35:28;;;;;;;6.07;0.63;;;;;;;;;;6340188;22;20101;-75
2021/03/21 00:37:55;;;;;;;1.97;0.70;;;;;;;;;;6365707;22;20002;-76
2021/03/21 00:40:21;;;;;;;1.27;0.70;;;;;;;;;;6340876;22;20003;-76
2021/03/21 00:42:47;;;;;;;6.63;1.00;;;;;;;;;;6365306;22;20105;-76
2021/03/21 00:45:14;;;;;;;1.03;0.80;;;;;;;;;;6339579;22;20006;-76
2021/03/21 00:47:40;;;;;;;1.70;0.93;;;;;;;;;;6365241;22;20003;-75
2021/03/21 00:50:08;;;;;;;2.60;1.20;;;;;;;;;;6365164;22;20015;-75
2021/03/21 00:52:34;;;;;;;4.53;1.27;;;;;;;;;;6340653;22;20371;-75
2021/03/21 00:55:00;;;;;;;3.17;1.63;;;;;;;;;;6365559;22;20007;-75
2021/03/21 00:57:26;;;;;;;2.97;1.70;;;;;;;;;;6365951;22;20007;-75
2021/03/21 00:59:52;;;;;;;5.33;2.00;;;;;;;;;;6339849;22;20075;-75
2021/03/21 01:02:18;;;;;;;5.20;2.20;;;;;;;;;;6339578;22;20437;-74
2021/03/21 01:04:44;;;;;;;10.73;2.40;;;;;;;;;;6339692;22;19999;-75
2021/03/21 01:07:10;;;;;;;7.80;2.53;;;;;;;;;;6340327;22;20050;-75
2021/03/21 01:09:36;;;;;;;4.23;3.00;;;;;;;;;;6339333;22;20011;-75
2021/03/21 01:12:03;;;;;;;6.07;2.60;;;;;;;;;;6339440;22;20015;-75
2021/03/21 01:14:29;;;;;;;6.37;3.23;;;;;;;;;;6340560;22;20276;-75
2021/03/21 01:16:55;;;;;;;5.93;3.50;;;;;;;;;;6365776;22;20007;-75
2021/03/21 01:19:21;;;;;;;6.40;4.13;;;;;;;;;;6339173;22;20010;-74
2021/03/21 01:21:48;;;;;;;5.27;3.93;;;;;;;;;;6339570;22;20333;-75
2021/03/21 01:24:15;;;;;;;7.10;3.80;;;;;;;;;;6366455;22;20014;-75
2021/03/21 01:26:41;;;;;;;4.10;3.23;;;;;;;;;;6366474;22;20112;-75
2021/03/21 01:29:07;;;;;;;6.20;4.77;;;;;;;;;;6366463;22;20018;-75
2021/03/21 01:31:34;;;;;;;8.80;5.27;;;;;;;;;;6366968;22;20006;-75
2021/03/21 01:34:00;;;;;;;8.97;5.10;;;;;;;;;;6344091;22;20030;-75
2021/03/21 01:36:28;;;;;;;10.20;5.17;;;;;;;;;;6368239;22;20111;-76
2021/03/21 01:38:55;;;;;;;9.87;5.20;;;;;;;;;;6370027;22;20090;-75
2021/03/21 01:41:23;;;;;;;10.53;6.13;;;;;;;;;;6342534;22;19999;-76
2021/03/21 01:43:50;;;;;;;11.77;6.07;;;;;;;;;;6366980;22;20010;-75
2021/03/21 01:46:20;;;;;;;14.73;6.27;;;;;;;;;;6343093;22;20003;-74
2021/03/21 01:48:51;;;;;;;12.27;5.47;;;;;;;;;;6369509;22;20363;-76
2021/03/21 01:51:23;;;;;;;10.67;6.67;;;;;;;;;;6344530;22;20005;-75
2021/03/21 01:53:55;;;;;;;12.10;6.90;;;;;;;;;;6367232;22;20003;-75
2021/03/21 01:56:22;;;;;;;11.27;5.97;;;;;;;;;;6368727;22;20006;-75
2021/03/21 01:58:53;;;;;;;15.07;7.50;;;;;;;;;;6371744;22;20021;-76
2021/03/21 02:01:22;;;;;;;12.70;8.40;;;;;;;;;;6374063;22;20010;-75
2021/03/21 02:03:48;;;;;;;12.37;8.33;;;;;;;;;;6369603;22;20030;-76
2021/03/21 02:06:25;;;;;;;14.43;8.70;;;;;;;;;;6341422;22;20432;-75
2021/03/21 02:08:53;;;;;;;14.07;9.10;;;;;;;;;;6365664;22;20042;-75
2021/03/21 02:11:25;;;;;;;15.57;8.67;;;;;;;;;;6365528;22;20007;-75
2021/03/21 02:14:14;;;;;;;17.33;10.70;;;;;;;;;;6369963;22;20003;-75
2021/03/21 02:16:43;;;;;;;15.63;9.87;;;;;;;;;;6288130;22;20007;-76
2021/03/21 02:19:09;;;;;;;20.83;11.17;;;;;;;;;;6373912;22;20170;-75
2021/03/21 02:21:40;;;;;;;17.30;10.93;;;;;;;;;;6345430;22;19998;-74
2021/03/21 02:24:12;;;;;;;21.27;12.87;;;;;;;;;;6366693;22;20010;-75
2021/03/21 02:26:57;;;;;;;21.70;12.13;;;;;;;;;;6366731;22;20037;-76
2021/03/21 02:29:42;;;;;;;20.30;12.57;;;;;;;;;;6341940;22;20003;-75
2021/03/21 02:32:09;;;;;;;24.85;13.93;;;;;;;;;;6366385;22;20006;-75
2021/03/21 02:34:56;;;;;;;23.20;13.77;;;;;;;;;;6366026;22;20113;-75
2021/03/21 02:37:41;;;;;;;21.80;14.03;;;;;;;;;;6365334;22;20015;-75
2021/03/21 02:40:25;;;;;;;23.90;14.80;;;;;;;;;;6341714;22;20324;-75
2021/03/21 02:42:58;;;;;;;25.42;14.90;;;;;;;;;;6342888;22;20011;-75
2021/03/21 02:45:28;;;;;;;23.80;13.43;;;;;;;;;;6367962;22;20368;-75
2021/03/21 02:47:57;;;;;;;22.17;14.10;;;;;;;;;;6368367;22;20009;-75
2021/03/21 02:50:23;;;;;;;29.07;14.13;;;;;;;;;;6368642;22;20309;-75
2021/03/21 02:52:51;;;;;;;25.87;16.27;;;;;;;;;;6346348;22;20021;-75
2021/03/21 02:55:28;;;;;;;28.13;15.77;;;;;;;;;;6372656;22;20007;-75
2021/03/21 02:57:57;;;;;;;32.07;17.33;;;;;;;;;;6369736;22;20014;-75
2021/03/21 03:00:31;;;;;;;31.27;17.33;;;;;;;;;;6367708;22;20003;-75
2021/03/21 03:02:59;;;;;;;33.33;16.27;;;;;;;;;;6371261;22;20003;-76
2021/03/21 03:05:27;;;;;;;33.40;17.13;;;;;;;;;;6346697;22;20014;-76
2021/03/21 03:07:56;;;;;;;26.33;14.37;;;;;;;;;;6372931;22;20029;-76
2021/03/21 03:10:22;;;;;;;31.60;18.53;;;;;;;;;;6371914;22;20007;-76
2021/03/21 03:12:52;;;;;;;30.00;14.27;;;;;;;;;;6371355;22;19999;-75
2021/03/21 03:15:19;;;;;;;26.23;14.07;;;;;;;;;;6371699;22;20011;-75
2021/03/21 03:17:57;;;;;;;19.80;12.17;;;;;;;;;;6369924;22;20086;-76
2021/03/21 03:20:26;;;;;;;22.47;14.70;;;;;;;;;;6367477;22;20049;-75
2021/03/21 03:22:55;;;;;;;15.27;7.63;;;;;;;;;;6341748;22;20006;-75
2021/03/21 03:25:40;;;;;;;22.47;11.17;;;;;;;;;;6366783;22;20002;-75
2021/03/21 03:28:06;;;;;;;15.33;6.97;;;;;;;;;;6366253;22;20034;-74
2021/03/21 03:30:35;;;;;;;15.43;8.27;;;;;;;;;;6366162;22;20011;-75
2021/03/21 03:33:01;;;;;;;12.10;5.87;;;;;;;;;;6367007;22;20003;-75
2021/03/21 03:35:27;;;;;;;13.20;5.13;;;;;;;;;;6367169;22;20011;-74
2021/03/21 03:37:53;;;;;;;18.23;6.43;;;;;;;;;;6366951;22;20037;-75
2021/03/21 03:40:20;;;;;;;14.97;5.63;;;;;;;;;;6340106;22;20438;-75
2021/03/21 03:42:51;;;;;;;12.60;5.40;;;;;;;;;;6342019;22;20071;-75
2021/03/21 03:45:46;;;;;;;10.50;4.00;;;;;;;;;;6366488;22;20007;-74
2021/03/21 03:48:25;;;;;;;9.90;3.92;;;;;;;;;;6314196;22;20030;-74
2021/03/21 03:50:51;;;;;;;11.70;3.40;;;;;;;;;;6342661;22;19995;-74
2021/03/21 03:53:46;;;;;;;11.93;3.47;;;;;;;;;;6369684;22;20102;-76
2021/03/21 03:56:12;;;;;;;;;;;;;;;;;;6315789;22;20003;-74
2021/03/21 03:58:47;;;;;;;8.73;2.47;;;;;;;;;;6342197;22;19929;-74
2021/03/21 04:01:15;;;;;;;9.37;2.90;;;;;;;;;;6370289;22;20007;-74
2021/03/21 04:03:58;;;;;;;8.27;2.37;;;;;;;;;;6366833;22;20006;-74
2021/03/21 04:06:33;;;;;;;9.87;2.70;;;;;;;;;;6366900;22;20014;-75
2021/03/21 04:09:02;;;;;;;13.70;2.67;;;;;;;;;;6367114;22;20018;-74
2021/03/21 04:11:41;;;;;;;10.73;2.20;;;;;;;;;;6366943;22;20003;-75
2021/03/21 04:14:10;;;;;;;9.13;2.07;;;;;;;;;;6367183;22;20310;-75
2021/03/21 04:16:39;;;;;;;12.43;2.50;;;;;;;;;;6367901;22;20003;-75
2021/03/21 04:19:07;;;;;;;15.23;2.43;;;;;;;;;;6369141;22;20118;-74
2021/03/21 04:21:33;;;;;;;11.40;2.50;;;;;;;;;;6368714;22;20007;-75
2021/03/21 04:24:19;;;;;;;12.63;2.87;;;;;;;;;;6368891;22;20007;-74
2021/03/21 04:26:55;;;;;;;12.07;2.27;;;;;;;;;;6345759;22;19999;-75
2021/03/21 04:29:23;;;;;;;12.30;2.07;;;;;;;;;;6375012;22;20085;-74
2021/03/21 04:31:51;;;;;;;10.07;2.10;;;;;;;;;;6369227;22;20003;-74
2021/03/21 04:34:18;;;;;;;10.37;1.97;;;;;;;;;;6342108;22;19995;-75
2021/03/21 04:36:45;;;;;;;16.30;2.07;;;;;;;;;;6366699;22;20011;-76
2021/03/21 04:39:13;;;;;;;10.23;2.07;;;;;;;;;;6342635;22;20078;-76
2021/03/21 04:42:00;;;;;;;8.77;1.40;;;;;;;;;;6368129;22;20038;-76
2021/03/21 04:44:31;;;;;;;9.57;1.80;;;;;;;;;;6317757;22;20002;-75
2021/03/21 04:47:12;;;;;;;16.23;2.20;;;;;;;;;;6365738;22;20015;-75
2021/03/21 04:49:38;;;;;;;15.83;2.07;;;;;;;;;;6366045;22;20060;-74
2021/03/21 04:52:15;;;;;;;12.27;1.73;;;;;;;;;;6341100;22;19995;-74
2021/03/21 04:54:42;;;;;;;11.47;1.93;;;;;;;;;;6341117;22;20070;-74
2021/03/21 04:57:21;;;;;;;11.60;1.80;;;;;;;;;;6366191;22;20002;-75
2021/03/21 04:59:47;;;;;;;8.97;1.53;;;;;;;;;;6366389;22;20023;-74
2021/03/21 05:02:15;;;;;;;13.50;2.30;;;;;;;;;;6366140;22;20003;-75
2021/03/21 05:04:43;;;;;;;12.23;1.87;;;;;;;;;;6366397;22;20305;-75
2021/03/21 05:07:28;;;;;;;16.63;2.20;;;;;;;;;;6366861;22;20011;-75
2021/03/21 05:09:56;;;;;;;13.38;2.30;;;;;;;;;;6367083;22;20037;-74
2021/03/21 05:12:43;;;;;;;12.97;2.27;;;;;;;;;;6367855;22;20007;-75
2021/03/21 05:15:15;;;;;;;20.30;2.23;;;;;;;;;;6367985;22;20203;-75
2021/03/21 05:18:05;;;;;;;16.13;2.47;;;;;;;;;;6343914;22;19995;-75
2021/03/21 05:20:35;;;;;;;10.83;1.83;;;;;;;;;;6367775;22;20011;-75
2021/03/21 05:23:19;;;;;;;7.23;1.43;;;;;;;;;;6368552;22;20341;-75
2021/03/21 05:25:48;;;;;;;14.52;2.08;;;;;;;;;;6345230;22;19995;-74
2021/03/21 05:28:18;;;;;;;16.63;3.67;;;;;;;;;;6367851;22;20006;-75
2021/03/21 05:30:44;;;;;;;14.13;1.90;;;;;;;;;;6367819;22;20056;-75
2021/03/21 05:33:10;;;;;;;11.60;2.43;;;;;;;;;;6341101;22;20085;-75
2021/03/21 05:35:38;;;;;;;15.10;3.30;;;;;;;;;;6342111;22;20425;-74
2021/03/21 05:38:24;;;;;;;13.53;2.33;;;;;;;;;;6343439;22;20123;-75
2021/03/21 05:40:53;;;;;;;13.77;2.20;;;;;;;;;;6297997;22;20064;-76
2021/03/21 05:43:25;;;;;;;15.23;2.97;;;;;;;;;;6373533;22;20030;-76
2021/03/21 05:46:04;;;;;;;18.77;2.43;;;;;;;;;;6344382;22;19999;-75
2021/03/21 05:48:30;;;;;;;26.67;3.43;;;;;;;;;;6368315;22;20048;-75
2021/03/21 05:51:13;;;;;;;15.93;2.97;;;;;;;;;;6367102;22;20444;-74
2021/03/21 05:53:57;;;;;;;20.00;3.40;;;;;;;;;;6367059;22;20052;-74
2021/03/21 05:56:32;;;;;;;15.45;2.45;;;;;;;;;;6342469;22;19999;-75
2021/03/21 05:59:13;;;;;;;21.73;2.53;;;;;;;;;;6367376;22;20045;-74
2021/03/21 06:01:59;;;;;;;14.97;3.13;;;;;;;;;;6368362;22;20011;-74
2021/03/21 06:04:24;;;;;;;;;;;;;;;;;;6369936;22;20003;-76
2021/03/21 06:06:53;;;;;;;20.27;2.50;;;;;;;;;;6368584;22;19906;-75
2021/03/21 06:09:38;;;;;;;15.30;2.80;;;;;;;;;;6368751;22;20018;-74
2021/03/21 06:12:07;;;;;;;18.40;2.58;;;;;;;;;;6369715;22;20325;-75
2021/03/21 06:14:52;;;;;;;17.10;2.43;;;;;;;;;;6370359;22;20007;-75
2021/03/21 06:17:21;;;;;;;21.73;3.95;;;;;;;;;;6347378;22;19995;-75
2021/03/21 06:20:05;;;;;;;12.63;1.33;;;;;;;;;;6373068;22;20014;-75
2021/03/21 06:22:31;;;;;;;24.98;2.88;;;;;;;;;;6372823;22;20014;-76
2021/03/21 06:25:04;;;;;;;17.40;2.27;;;;;;;;;;6350114;22;20002;-76
2021/03/21 06:27:52;;;;;;;21.90;3.10;;;;;;;;;;6374902;22;20011;-76
2021/03/21 06:30:26;;;;;;;21.97;3.97;;;;;;;;;;6351024;22;20488;-76
2021/03/21 06:33:11;;;;;;;10.63;2.13;;;;;;;;;;6374804;22;20003;-75
2021/03/21 06:35:56;;;;;;;12.70;2.00;;;;;;;;;;6376081;22;20038;-76
2021/03/21 06:38:44;;;;;;;15.90;2.58;;;;;;;;;;6353331;22;20026;-75
2021/03/21 06:41:10;;;;;;;22.33;2.63;;;;;;;;;;6377262;22;20507;-76
2021/03/21 06:43:36;;;;;;;20.07;2.50;;;;;;;;;;6349820;22;20021;-76
2021/03/21 06:46:04;;;;;;;24.70;2.87;;;;;;;;;;6344621;22;19998;-75
2021/03/21 06:48:33;;;;;;;18.73;2.53;;;;;;;;;;6345080;22;20003;-76
2021/03/21 06:51:17;;;;;;;16.63;3.00;;;;;;;;;;6370514;22;20019;-75
2021/03/21 06:54:10;;;;;;;15.27;1.80;;;;;;;;;;6374691;22;20003;-76
2021/03/21 06:56:49;;;;;;;27.87;2.57;;;;;;;;;;6345313;22;20035;-76
2021/03/21 06:59:34;;;;;;;14.90;1.90;;;;;;;;;;6343954;22;20010;-76
2021/03/21 07:02:12;;;;;;;20.40;3.60;;;;;;;;;;6344487;22;20002;-76
2021/03/21 07:04:54;;;;;;;10.87;2.10;;;;;;;;;;6344885;22;20061;-76
2021/03/21 07:07:40;;;;;;;17.43;2.90;;;;;;;;;;6369871;22;20018;-76
2021/03/21 07:10:41;;;;;;;12.93;2.27;;;;;;;;;;6343818;22;20002;-76
2021/03/21 07:13:19;;;;;;;18.20;2.73;;;;;;;;;;6346097;22;19995;-76
2021/03/21 07:15:52;;;;;;;17.27;2.13;;;;;;;;;;6372345;22;20009;-76
2021/03/21 07:18:36;;;;;;;15.77;2.60;;;;;;;;;;6371672;22;20010;-77
2021/03/21 07:21:11;;;;;;;13.70;2.45;;;;;;;;;;6348395;22;20026;-76
2021/03/21 07:23:44;;;;;;;15.23;1.90;;;;;;;;;;6376167;22;20003;-76
2021/03/21 07:26:13;;;;;;;23.63;3.00;;;;;;;;;;6372424;22;20014;-75
2021/03/21 07:28:48;;;;;;;11.93;2.00;;;;;;;;;;6368668;22;20007;-75
2021/03/21 07:31:32;;;;;;;15.47;2.07;;;;;;;;;;6370076;22;20003;-76
2021/03/21 07:34:07;;;;;;;25.17;3.88;;;;;;;;;;6368347;22;20071;-75
2021/03/21 07:36:52;;;;;;;21.07;2.53;;;;;;;;;;6366217;22;20010;-76
2021/03/21 07:39:19;;;;;;;17.57;2.50;;;;;;;;;;6341351;22;20026;-75
2021/03/21 07:42:03;;;;;;;18.43;3.57;;;;;;;;;;6366088;22;20019;-75
2021/03/21 07:44:41;;;;;;;26.83;3.58;;;;;;;;;;6341465;22;19998;-76
2021/03/21 07:47:13;;;;;;;16.97;2.83;;;;;;;;;;6365366;22;20420;-75
2021/03/21 07:49:42;;;;;;;30.00;4.03;;;;;;;;;;6366586;22;20152;-75
2021/03/21 07:52:35;;;;;;;25.67;3.47;;;;;;;;;;6340937;22;20082;-76
2021/03/21 07:55:10;;;;;;;25.40;4.00;;;;;;;;;;6305510;22;20040;-75
2021/03/21 07:57:55;;;;;;;27.90;3.77;;;;;;;;;;6341428;22;20466;-75
2021/03/21 08:00:21;;;;;;;34.67;4.43;;;;;;;;;;6366277;22;20149;-76
2021/03/21 08:02:49;;;;;;;21.20;3.10;;;;;;;;;;6339779;22;20035;-76
2021/03/21 08:05:18;;;;;;;29.60;2.87;;;;;;;;;;6341096;22;20056;-76
2021/03/21 08:07:46;;;;;;;27.83;3.90;;;;;;;;;;6366494;22;20102;-76
2021/03/21 08:10:21;;;;;;;26.97;3.97;;;;;;;;;;6341337;22;20493;-76
2021/03/21 08:12:51;;;;;;;31.67;4.00;;;;;;;;;;6367090;22;20003;-76
2021/03/21 08:15:19;;;;;;;24.47;3.37;;;;;;;;;;6367320;22;20024;-76
2021/03/21 08:17:48;;;;;;;30.27;4.80;;;;;;;;;;6342789;22;20074;-76
2021/03/21 08:20:19;;;;;;;23.57;4.57;;;;;;;;;;6342803;22;20038;-76
2021/03/21 08:22:45;;;;;;;24.13;4.27;;;;;;;;;;6367296;22;20013;-76
2021/03/21 08:25:19;;;;;;;25.43;3.67;;;;;;;;;;6365897;22;20079;-76
2021/03/21 08:27:45;;;;;;;24.77;4.72;;;;;;;;;;6366637;22;20007;-76
2021/03/21 08:30:14;;;;;;;16.37;2.10;;;;;;;;;;6367758;22;20035;-75
2021/03/21 08:32:58;;;;;;;20.80;2.63;;;;;;;;;;6341177;22;20005;-76
2021/03/21 08:35:27;;;;;;;25.83;3.70;;;;;;;;;;6365913;22;20003;-76
2021/03/21 08:37:54;;;;;;;20.23;3.17;;;;;;;;;;6342948;22;20030;-75
2021/03/21 08:40:23;;;;;;;23.27;3.10;;;;;;;;;;6342769;22;20082;-76
2021/03/21 08:42:51;;;;;;;27.03;3.67;;;;;;;;;;6367823;22;20079;-76
2021/03/21 08:45:20;;;;;;;25.40;4.17;;;;;;;;;;6343855;22;20417;-76
2021/03/21 08:47:47;;;;;;;28.80;3.20;;;;;;;;;;6372825;22;20003;-74
2021/03/21 08:50:31;;;;;;;23.23;3.90;;;;;;;;;;6349338;22;19999;-75
2021/03/21 08:52:57;;;;;;;28.98;4.15;;;;;;;;;;6371956;22;19999;-75
2021/03/21 08:55:28;;;;;;;30.00;3.43;;;;;;;;;;6346297;22;20436;-76
2021/03/21 08:57:54;;;;;;;10.43;2.07;;;;;;;;;;6346674;22;19995;-76
2021/03/21 09:00:23;;;;;;;16.40;2.63;;;;;;;;;;6346847;22;20306;-75
2021/03/21 09:02:50;;;;;;;36.70;5.90;;;;;;;;;;6373519;22;20027;-76
2021/03/21 09:05:17;;;;;;;24.93;3.60;;;;;;;;;;6349817;22;20101;-76
2021/03/21 09:07:44;;;;;;;19.60;3.43;;;;;;;;;;6344671;22;20020;-75
2021/03/21 09:10:19;;;;;;;23.73;2.53;;;;;;;;;;6342934;22;20014;-75
2021/03/21 09:12:55;;;;;;;26.13;5.43;;;;;;;;;;6368838;22;20089;-74
2021/03/21 09:15:22;;;;;;;34.10;6.07;;;;;;;;;;6369985;22;20359;-75
2021/03/21 09:18:07;;;;;;;11.10;1.97;;;;;;;;;;6369989;22;20512;-75
2021/03/21 09:20:34;;;;;;;21.42;2.92;;;;;;;;;;6369819;22;20011;-76
2021/03/21 09:23:20;;;;;;;33.13;4.70;;;;;;;;;;6372638;22;20007;-75
2021/03/21 09:25:53;;;;;;;20.97;3.90;;;;;;;;;;6372256;22;20038;-76
2021/03/21 09:28:19;;;;;;;24.37;4.00;;;;;;;;;;6345086;22;20081;-75
2021/03/21 09:30:47;;;;;;;25.73;4.03;;;;;;;;;;6342338;22;20024;-74
2021/03/21 09:33:39;;;;;;;29.07;4.23;;;;;;;;;;6372060;22;20030;-75
2021/03/21 09:36:11;;;;;;;19.73;4.07;;;;;;;;;;6297483;22;20011;-75
2021/03/21 09:38:44;;;;;;;34.93;5.27;;;;;;;;;;6370320;22;20094;-76
2021/03/21 09:41:11;;;;;;;24.30;4.33;;;;;;;;;;6370358;22;20014;-75
2021/03/21 09:43:39;;;;;;;21.23;3.83;;;;;;;;;;6367611;22;20038;-74
2021/03/21 09:46:08;;;;;;;17.07;2.93;;;;;;;;;;6365948;22;20030;-74
2021/03/21 09:48:38;;;;;;;29.37;4.13;;;;;;;;;;6340328;22;20025;-74
2021/03/21 09:51:04;;;;;;;21.80;4.43;;;;;;;;;;6365922;22;20447;-74
2021/03/21 09:53:40;;;;;;;30.53;4.07;;;;;;;;;;6365553;22;20328;-75
2021/03/21 09:56:10;;;;;;;19.13;3.60;;;;;;;;;;6341090;22;20054;-75
2021/03/21 09:58:39;;;;;;;26.67;4.13;;;;;;;;;;6365423;22;20003;-74
2021/03/21 10:01:15;;;;;;;33.33;5.50;;;;;;;;;;6341130;22;19995;-75
2021/03/21 10:03:42;;;;;;;17.93;3.37;;;;;;;;;;6365114;22;20010;-76
2021/03/21 10:06:31;;;;;;;27.00;3.33;;;;;;;;;;6364634;22;20014;-75
2021/03/21 10:09:16;;;;;;;24.67;3.83;;;;;;;;;;6341772;22;20077;-76
2021/03/21 10:11:45;;;;;;;26.53;3.80;;;;;;;;;;6369450;22;20421;-75
2021/03/21 10:14:27;;;;;;;21.93;3.47;;;;;;;;;;6345186;22;19994;-75
2021/03/21 10:16:53;;;;;;;37.37;6.13;;;;;;;;;;6370266;22;20003;-75
2021/03/21 10:19:46;;;;;;;21.65;3.67;;;;;;;;;;6369934;22;20429;-75
2021/03/21 10:22:18;;;;;;;31.13;4.63;;;;;;;;;;6338401;22;20436;-75
2021/03/21 10:24:44;;;;;;;29.53;4.27;;;;;;;;;;6372048;22;20424;-76
2021/03/21 10:27:24;;;;;;;37.37;4.70;;;;;;;;;;6373486;22;20038;-77
2021/03/21 10:29:50;;;;;;;37.53;4.27;;;;;;;;;;6369163;22;20093;-75
2021/03/21 10:32:21;;;;;;;35.75;4.82;;;;;;;;;;6370394;22;20056;-75
2021/03/21 10:34:48;;;;;;;24.75;4.38;;;;;;;;;;6370370;22;20060;-75
2021/03/21 10:37:34;;;;;;;41.97;5.20;;;;;;;;;;6345150;22;20023;-76
2021/03/21 10:40:03;;;;;;;28.13;3.37;;;;;;;;;;6370157;22;20434;-76
2021/03/21 10:42:39;;;;;;;29.63;5.38;;;;;;;;;;6369573;22;20038;-75
2021/03/21 10:45:09;;;;;;;29.07;4.17;;;;;;;;;;6370474;22;20011;-75
2021/03/21 10:47:35;;;;;;;18.73;3.50;;;;;;;;;;6369554;22;20007;-77
2021/03/21 10:50:03;;;;;;;32.85;4.90;;;;;;;;;;6369618;22;20017;-75
2021/03/21 10:52:34;;;;;;;21.83;4.43;;;;;;;;;;6369662;22;19999;-75
2021/03/21 10:55:13;;;;;;;41.53;5.90;;;;;;;;;;6369760;22;20011;-74
2021/03/21 10:57:45;;;;;;;22.40;3.40;;;;;;;;;;6371113;22;20395;-75
2021/03/21 11:00:25;;;;;;;37.35;5.15;;;;;;;;;;6370952;22;20052;-76
2021/03/21 11:03:00;;;;;;;28.42;4.90;;;;;;;;;;6371624;22;20009;-75
2021/03/21 11:05:26;;;;;;;28.13;5.30;;;;;;;;;;6368718;22;20011;-74
2021/03/21 11:08:01;;;;;;;28.90;3.77;;;;;;;;;;6369143;22;20014;-75
2021/03/21 11:10:35;;;;;;;29.40;5.97;;;;;;;;;;6369044;22;20329;-74
2021/03/21 11:13:02;;;;;;;34.00;4.90;;;;;;;;;;6344608;22;20025;-75
2021/03/21 11:15:31;;;;;;;24.70;4.30;;;;;;;;;;6371026;22;20006;-74
2021/03/21 11:18:04;;;;;;;33.53;5.35;;;;;;;;;;6369490;22;20350;-75
2021/03/21 11:20:35;;;;;;;26.75;4.15;;;;;;;;;;6369697;22;20011;-75
2021/03/21 11:23:09;;;;;;;31.83;4.65;;;;;;;;;;6369178;22;20377;-75
2021/03/21 11:25:37;;;;;;;30.23;4.70;;;;;;;;;;6371749;22;20493;-76
2021/03/21 11:28:03;;;;;;;33.05;5.72;;;;;;;;;;6377096;22;20002;-75
2021/03/21 11:30:29;;;;;;;23.75;3.63;;;;;;;;;;6354394;22;20006;-76
2021/03/21 11:32:57;;;;;;;21.77;3.47;;;;;;;;;;6352080;22;20023;-75
2021/03/21 11:35:30;;;;;;;43.35;5.38;;;;;;;;;;6372392;22;20029;-75
2021/03/21 11:37:58;;;;;;;11.27;1.88;;;;;;;;;;6348017;22;20010;-77
2021/03/21 11:40:24;;;;;;;25.92;3.10;;;;;;;;;;6372043;22;20011;-76
2021/03/21 11:43:07;;;;;;;29.92;4.18;;;;;;;;;;6371968;22;20022;-76
2021/03/21 11:45:36;;;;;;;22.85;4.30;;;;;;;;;;6371669;22;20014;-76
2021/03/21 11:48:08;;;;;;;23.00;3.58;;;;;;;;;;6370522;22;20003;-76
2021/03/21 11:50:37;;;;;;;31.03;4.70;;;;;;;;;;6375737;22;20007;-76
2021/03/21 11:53:05;;;;;;;26.98;5.38;;;;;;;;;;6371003;22;20022;-75
2021/03/21 11:55:32;;;;;;;18.73;4.03;;;;;;;;;;6370674;22;20007;-76
2021/03/21 11:58:01;;;;;;;31.03;4.57;;;;;;;;;;6344967;22;20011;-76
2021/03/21 12:00:29;;;;;;;22.43;2.60;;;;;;;;;;6348166;22;20013;-76
2021/03/21 12:03:01;;;;;;;30.60;4.57;;;;;;;;;;6378501;22;20007;-75
2021/03/21 12:05:32;;;;;;;23.45;3.95;;;;;;;;;;6376858;22;20011;-75
2021/03/21 12:08:10;;;;;;;33.80;4.70;;;;;;;;;;6368887;22;20003;-75
2021/03/21 12:10:38;;;;;;;34.03;6.10;;;;;;;;;;6368522;22;20321;-75
2021/03/21 12:13:24;;;;;;;29.98;4.15;;;;;;;;;;6368870;22;20056;-75
2021/03/21 12:15:51;;;;;;;22.23;4.20;;;;;;;;;;6343361;22;20076;-75
2021/03/21 12:18:22;;;;;;;33.47;4.75;;;;;;;;;;6343764;22;20383;-76
2021/03/21 12:20:54;;;;;;;32.35;5.05;;;;;;;;;;6345909;22;20009;-76
2021/03/21 12:23:26;;;;;;;31.13;4.00;;;;;;;;;;6373011;22;20375;-76
2021/03/21 12:26:07;;;;;;;45.65;7.32;;;;;;;;;;6373930;22;20007;-76
2021/03/21 12:28:34;;;;;;;35.37;5.93;;;;;;;;;;6376813;22;20007;-76
2021/03/21 12:31:02;;;;;;;26.77;3.97;;;;;;;;;;6351880;22;20067;-77
2021/03/21 12:33:28;;;;;;;17.55;4.13;;;;;;;;;;6375056;22;20006;-76
2021/03/21 12:35:56;;;;;;;17.00;3.00;;;;;;;;;;6350461;22;20033;-77
2021/03/21 12:38:28;;;;;;;25.60;4.53;;;;;;;;;;6375430;22;20081;-77
2021/03/21 12:40:54;;;;;;;28.17;4.78;;;;;;;;;;6350225;22;20035;-76
2021/03/21 12:43:20;;;;;;;34.92;5.55;;;;;;;;;;6348451;22;20034;-77
2021/03/21 12:46:06;;;;;;;23.55;4.15;;;;;;;;;;6374865;22;20021;-77
2021/03/21 12:48:45;;;;;;;15.57;3.22;;;;;;;;;;6376482;22;20022;-76
2021/03/21 12:51:15;;;;;;;26.67;4.53;;;;;;;;;;6370775;22;20013;-76
2021/03/21 12:53:41;;;;;;;21.90;4.03;;;;;;;;;;6347056;22;20002;-76
2021/03/21 12:56:08;;;;;;;20.25;3.28;;;;;;;;;;6344148;22;20003;-77
2021/03/21 12:58:34;;;;;;;26.10;4.68;;;;;;;;;;6370543;22;20007;-76
2021/03/21 13:01:00;;;;;;;18.23;3.78;;;;;;;;;;6341602;22;20011;-76
2021/03/21 13:03:31;;;;;;;28.33;4.47;;;;;;;;;;6340184;22;19999;-76
2021/03/21 13:05:58;;;;;;;23.58;5.50;;;;;;;;;;6342695;22;20003;-77
2021/03/21 13:08:25;;;;;;;34.53;4.47;;;;;;;;;;6368055;22;20037;-77
2021/03/21 13:10:51;;;;;;;16.73;3.33;;;;;;;;;;6368152;22;20440;-76
2021/03/21 13:13:17;;;;;;;20.73;3.85;;;;;;;;;;6342099;22;20011;-76
2021/03/21 13:15:44;;;;;;;23.92;3.25;;;;;;;;;;6367967;22;20085;-76
2021/03/21 13:18:17;;;;;;;32.73;4.83;;;;;;;;;;6342326;22;20007;-77
2021/03/21 13:20:43;;;;;;;21.08;2.80;;;;;;;;;;6341279;22;20433;-76
2021/03/21 13:23:09;;;;;;;27.90;4.77;;;;;;;;;;6365958;22;20007;-75
2021/03/21 13:25:35;;;;;;;29.40;4.30;;;;;;;;;;6339708;22;20021;-75
2021/03/21 13:28:03;;;;;;;30.58;4.03;;;;;;;;;;6339695;22;20071;-76
2021/03/21 13:30:31;;;;;;;29.05;4.40;;;;;;;;;;6365964;22;20006;-75
2021/03/21 13:32:58;;;;;;;27.20;4.68;;;;;;;;;;6366100;22;20081;-76
2021/03/21 13:35:26;;;;;;;24.45;4.03;;;;;;;;;;6366267;22;20007;-75
2021/03/21 13:37:52;;;;;;;26.27;4.70;;;;;;;;;;6365801;22;20038;-75
2021/03/21 13:40:29;;;;;;;25.38;3.78;;;;;;;;;;6342250;22;20013;-75
2021/03/21 13:42:55;;;;;;;26.13;4.70;;;;;;;;;;6365871;22;20111;-76
2021/03/21 13:45:22;;;;;;;23.20;4.75;;;;;;;;;;6366147;22;20301;-76
2021/03/21 13:47:48;;;;;;;18.83;2.95;;;;;;;;;;6366553;22;20003;-75
2021/03/21 13:50:15;;;;;;;32.28;4.60;;;;;;;;;;6366413;22;20007;-75
2021/03/21 13:52:41;;;;;;;21.85;3.60;;;;;;;;;;6367004;22;20421;-75
2021/03/21 13:55:09;;;;;;;26.40;3.80;;;;;;;;;;6368165;22;20375;-76
2021/03/21 13:57:35;;;;;;;28.00;4.97;;;;;;;;;;6342857;22;20001;-76
2021/03/21 14:00:01;;;;;;;23.65;4.32;;;;;;;;;;6366610;22;20042;-76
2021/03/21 14:02:27;;;;;;;19.05;3.85;;;;;;;;;;6339693;22;20433;-75
2021/03/21 14:04:53;;;;;;;31.95;4.40;;;;;;;;;;6339153;22;20094;-75
2021/03/21 14:07:19;;;;;;;35.38;4.88;;;;;;;;;;6364791;22;20341;-75
2021/03/21 14:09:45;;;;;;;35.35;4.20;;;;;;;;;;6342484;22;20015;-76
2021/03/21 14:12:13;;;;;;;17.40;2.65;;;;;;;;;;6341024;22;20010;-76
2021/03/21 14:14:39;;;;;;;28.98;3.92;;;;;;;;;;6368275;22;20064;-76
2021/03/21 14:17:05;;;;;;;9.85;1.60;;;;;;;;;;6343392;22;19999;-76
2021/03/21 14:19:31;;;;;;;20.10;3.58;;;;;;;;;;6339622;22;20409;-77
2021/03/21 14:21:57;;;;;;;20.80;3.10;;;;;;;;;;6366337;22;20329;-75
2021/03/21 14:24:23;;;;;;;32.67;4.57;;;;;;;;;;6366196;22;20006;-76
2021/03/21 14:26:49;;;;;;;22.58;4.35;;;;;;;;;;6367969;22;20007;-76
2021/03/21 14:29:15;;;;;;;26.40;3.72;;;;;;;;;;6342580;22;20011;-77
2021/03/21 14:31:41;;;;;;;25.20;3.78;;;;;;;;;;6343765;22;20007;-76
2021/03/21 14:34:08;;;;;;;39.30;6.97;;;;;;;;;;6367658;22;20004;-76
2021/03/21 14:36:34;;;;;;;15.30;3.67;;;;;;;;;;6340261;22;20011;-75
2021/03/21 14:39:00;;;;;;;23.85;3.72;;;;;;;;;;6342823;22;20011;-76
2021/03/21 14:41:26;;;;;;;25.17;4.80;;;;;;;;;;6343555;22;19999;-77
2021/03/21 14:43:52;;;;;;;27.52;4.55;;;;;;;;;;6343415;22;20018;-76
2021/03/21 14:46:18;;;;;;;19.27;2.63;;;;;;;;;;6342398;22;20302;-76
2021/03/21 14:48:44;;;;;;;27.33;4.18;;;;;;;;;;6366509;22;20003;-76
2021/03/21 14:51:10;;;;;;;24.45;4.22;;;;;;;;;;6365691;22;20011;-75
2021/03/21 14:53:36;;;;;;;20.60;3.08;;;;;;;;;;6366309;22;20003;-75
2021/03/21 14:56:09;;;;;;;23.77;4.13;;;;;;;;;;6342905;22;20037;-76